Accueil
METAR-TAF:

METAR-TAF

Aéroports :

Portorož, Slovénie

latitude: 45-31N, longitude: 013-34E, altitude: 95 m

Observation

Le bulletin a été fait il y a 29 minutes, à 16:30 UTC
Vent 4 kt de sud-ouest, variant entre sud/sud-est et ouest
Température 21°C
Humidité 78%
Pression 1010 hPa
Visibilité 10 km ou plus
Quelques nuages à une hauteur de 3000 ft
Nuages fragmentés à une hauteur de 18000 ft

METAR: LJPZ 191630Z 22004KT 160V260 9999 FEW030 BKN180 21/17 Q1010

Heure: 18:59 (16:59 UTC)

Prévision

Le bulletin a été fait il y a 2 heures et 59 minutes, à 14:00 UTC
Prévision valable du 19 à 15 UTC au 20 à 00 UTC
Vent 5 kt de ouest/sud-ouest
Visibilité 10 km ou plus
Quelques nuages à une hauteur de 3000 ft

TAF: LJPZ 191400Z 1915/2000 24005KT 9999 FEW030

Observations et prévisions météorologiques de plus de 4000 aéroports (messages METAR et TAF).

Les stations disponibles sont représentées par des disques jaunes et rouges sur la carte.

Passer la souris dessus pour voir le nom de la station.

Cliquer dessus pour voir les observations et prévisions météorologiques.

Pour changer de carte: cliquez sur les boutons verts avec une croix noire pour zoomer, sur le bouton vert avec un tiret pour effectuer un zoom arrière, ou sur les flèches vertes pour les cartes adjacentes.


METAR-TAF: